sensor_id;sensor_type;location;lat;lon;timestamp;P1;durP1;ratioP1;P2;durP2;ratioP2
34805;SDS011;65084;42.196;25.326;2023-04-03T00:00:41;3.00;;;2.70;;
34805;SDS011;65084;42.196;25.326;2023-04-03T00:03:08;8.15;;;2.85;;
34805;SDS011;65084;42.196;25.326;2023-04-03T00:05:35;4.50;;;3.42;;
34805;SDS011;65084;42.196;25.326;2023-04-03T00:08:03;3.90;;;2.83;;
34805;SDS011;65084;42.196;25.326;2023-04-03T00:10:33;3.67;;;2.90;;
34805;SDS011;65084;42.196;25.326;2023-04-03T00:13:02;3.10;;;2.80;;
34805;SDS011;65084;42.196;25.326;2023-04-03T00:15:29;3.08;;;2.65;;
34805;SDS011;65084;42.196;25.326;2023-04-03T00:17:57;3.25;;;2.17;;
34805;SDS011;65084;42.196;25.326;2023-04-03T00:20:24;3.53;;;2.20;;
34805;SDS011;65084;42.196;25.326;2023-04-03T00:22:52;5.93;;;1.77;;
34805;SDS011;65084;42.196;25.326;2023-04-03T00:25:19;3.33;;;2.58;;
34805;SDS011;65084;42.196;25.326;2023-04-03T00:27:47;2.97;;;2.30;;
34805;SDS011;65084;42.196;25.326;2023-04-03T00:30:16;9.57;;;1.92;;
34805;SDS011;65084;42.196;25.326;2023-04-03T00:32:44;4.75;;;2.17;;
34805;SDS011;65084;42.196;25.326;2023-04-03T00:35:12;3.72;;;2.03;;
34805;SDS011;65084;42.196;25.326;2023-04-03T00:37:40;1.83;;;1.73;;
34805;SDS011;65084;42.196;25.326;2023-04-03T00:40:08;4.55;;;2.08;;
34805;SDS011;65084;42.196;25.326;2023-04-03T00:42:36;2.38;;;2.17;;
34805;SDS011;65084;42.196;25.326;2023-04-03T00:45:25;1.45;;;1.30;;
34805;SDS011;65084;42.196;25.326;2023-04-03T00:47:53;1.27;;;1.10;;
34805;SDS011;65084;42.196;25.326;2023-04-03T00:50:20;1.05;;;0.73;;
34805;SDS011;65084;42.196;25.326;2023-04-03T00:52:48;0.80;;;0.80;;
34805;SDS011;65084;42.196;25.326;2023-04-03T00:55:15;1.23;;;0.93;;
34805;SDS011;65084;42.196;25.326;2023-04-03T00:57:43;0.80;;;0.80;;
34805;SDS011;65084;42.196;25.326;2023-04-03T01:00:13;0.98;;;0.80;;
34805;SDS011;65084;42.196;25.326;2023-04-03T01:02:44;0.80;;;0.80;;
34805;SDS011;65084;42.196;25.326;2023-04-03T01:05:11;2.58;;;0.80;;
34805;SDS011;65084;42.196;25.326;2023-04-03T01:07:39;3.33;;;1.77;;
34805;SDS011;65084;42.196;25.326;2023-04-03T01:10:07;2.97;;;0.70;;
34805;SDS011;65084;42.196;25.326;2023-04-03T01:12:36;0.70;;;0.70;;
34805;SDS011;65084;42.196;25.326;2023-04-03T01:15:05;2.45;;;0.98;;
34805;SDS011;65084;42.196;25.326;2023-04-03T01:17:34;0.90;;;0.73;;
34805;SDS011;65084;42.196;25.326;2023-04-03T01:20:21;1.65;;;0.77;;
34805;SDS011;65084;42.196;25.326;2023-04-03T01:22:52;2.55;;;1.05;;
34805;SDS011;65084;42.196;25.326;2023-04-03T01:25:23;3.08;;;0.80;;
34805;SDS011;65084;42.196;25.326;2023-04-03T01:27:51;1.10;;;0.90;;
34805;SDS011;65084;42.196;25.326;2023-04-03T01:30:19;1.65;;;1.20;;
34805;SDS011;65084;42.196;25.326;2023-04-03T01:32:48;3.90;;;0.95;;
34805;SDS011;65084;42.196;25.326;2023-04-03T01:35:16;2.78;;;1.20;;
34805;SDS011;65084;42.196;25.326;2023-04-03T01:37:43;4.32;;;0.77;;
34805;SDS011;65084;42.196;25.326;2023-04-03T01:40:10;1.15;;;0.80;;
34805;SDS011;65084;42.196;25.326;2023-04-03T01:42:38;1.70;;;0.90;;
34805;SDS011;65084;42.196;25.326;2023-04-03T01:45:05;1.48;;;1.10;;
34805;SDS011;65084;42.196;25.326;2023-04-03T01:47:33;4.32;;;1.02;;
34805;SDS011;65084;42.196;25.326;2023-04-03T01:50:01;1.85;;;1.25;;
34805;SDS011;65084;42.196;25.326;2023-04-03T01:52:29;1.85;;;1.40;;
34805;SDS011;65084;42.196;25.326;2023-04-03T01:54:56;1.90;;;1.40;;
34805;SDS011;65084;42.196;25.326;2023-04-03T01:57:23;4.13;;;1.33;;
34805;SDS011;65084;42.196;25.326;2023-04-03T01:59:51;1.73;;;1.55;;
34805;SDS011;65084;42.196;25.326;2023-04-03T02:02:18;0.95;;;0.90;;
34805;SDS011;65084;42.196;25.326;2023-04-03T02:04:45;1.08;;;1.00;;
34805;SDS011;65084;42.196;25.326;2023-04-03T02:07:14;2.08;;;1.30;;
34805;SDS011;65084;42.196;25.326;2023-04-03T02:09:41;2.17;;;1.15;;
34805;SDS011;65084;42.196;25.326;2023-04-03T02:12:08;1.33;;;1.20;;
34805;SDS011;65084;42.196;25.326;2023-04-03T02:14:36;4.53;;;1.23;;
34805;SDS011;65084;42.196;25.326;2023-04-03T02:17:03;3.60;;;1.15;;
34805;SDS011;65084;42.196;25.326;2023-04-03T02:19:33;4.78;;;1.30;;
34805;SDS011;65084;42.196;25.326;2023-04-03T02:22:01;1.60;;;1.35;;
34805;SDS011;65084;42.196;25.326;2023-04-03T02:24:29;1.80;;;1.00;;
34805;SDS011;65084;42.196;25.326;2023-04-03T02:26:57;4.45;;;1.33;;
34805;SDS011;65084;42.196;25.326;2023-04-03T02:29:24;1.45;;;1.33;;
34805;SDS011;65084;42.196;25.326;2023-04-03T02:31:51;2.28;;;1.45;;
34805;SDS011;65084;42.196;25.326;2023-04-03T02:34:19;1.42;;;1.30;;
34805;SDS011;65084;42.196;25.326;2023-04-03T02:36:46;4.80;;;1.85;;
34805;SDS011;65084;42.196;25.326;2023-04-03T02:39:13;7.88;;;2.30;;
34805;SDS011;65084;42.196;25.326;2023-04-03T02:41:42;4.13;;;1.90;;
34805;SDS011;65084;42.196;25.326;2023-04-03T02:44:10;5.70;;;1.73;;
34805;SDS011;65084;42.196;25.326;2023-04-03T02:46:37;1.88;;;1.75;;
34805;SDS011;65084;42.196;25.326;2023-04-03T02:49:05;6.00;;;1.40;;
34805;SDS011;65084;42.196;25.326;2023-04-03T02:51:32;5.88;;;1.40;;
34805;SDS011;65084;42.196;25.326;2023-04-03T02:53:59;6.88;;;1.38;;
34805;SDS011;65084;42.196;25.326;2023-04-03T02:56:27;1.13;;;1.13;;
34805;SDS011;65084;42.196;25.326;2023-04-03T02:58:55;2.28;;;1.27;;
34805;SDS011;65084;42.196;25.326;2023-04-03T03:01:23;1.25;;;1.10;;
34805;SDS011;65084;42.196;25.326;2023-04-03T03:03:52;1.40;;;1.00;;
34805;SDS011;65084;42.196;25.326;2023-04-03T03:06:19;0.93;;;0.90;;
34805;SDS011;65084;42.196;25.326;2023-04-03T03:08:46;1.83;;;1.67;;
34805;SDS011;65084;42.196;25.326;2023-04-03T03:11:14;3.28;;;1.95;;
34805;SDS011;65084;42.196;25.326;2023-04-03T03:13:41;1.90;;;1.80;;
34805;SDS011;65084;42.196;25.326;2023-04-03T03:16:10;2.35;;;1.98;;
34805;SDS011;65084;42.196;25.326;2023-04-03T03:18:37;3.03;;;2.30;;
34805;SDS011;65084;42.196;25.326;2023-04-03T03:21:04;3.33;;;2.50;;
34805;SDS011;65084;42.196;25.326;2023-04-03T03:23:32;2.90;;;2.45;;
34805;SDS011;65084;42.196;25.326;2023-04-03T03:26:00;4.15;;;1.70;;
34805;SDS011;65084;42.196;25.326;2023-04-03T03:28:27;2.65;;;2.05;;
34805;SDS011;65084;42.196;25.326;2023-04-03T03:30:55;4.63;;;2.42;;
34805;SDS011;65084;42.196;25.326;2023-04-03T03:33:24;3.97;;;2.47;;
34805;SDS011;65084;42.196;25.326;2023-04-03T03:35:51;38.28;;;3.78;;
34805;SDS011;65084;42.196;25.326;2023-04-03T03:38:18;19.27;;;3.13;;
34805;SDS011;65084;42.196;25.326;2023-04-03T03:40:46;3.40;;;1.92;;
34805;SDS011;65084;42.196;25.326;2023-04-03T03:43:14;36.42;;;2.80;;
34805;SDS011;65084;42.196;25.326;2023-04-03T03:45:42;9.20;;;2.50;;
34805;SDS011;65084;42.196;25.326;2023-04-03T03:48:09;21.40;;;2.80;;
34805;SDS011;65084;42.196;25.326;2023-04-03T03:50:38;10.48;;;2.33;;
34805;SDS011;65084;42.196;25.326;2023-04-03T03:53:05;8.52;;;2.40;;
34805;SDS011;65084;42.196;25.326;2023-04-03T03:55:33;5.13;;;2.13;;
34805;SDS011;65084;42.196;25.326;2023-04-03T03:58:00;7.18;;;2.47;;
34805;SDS011;65084;42.196;25.326;2023-04-03T04:00:28;4.45;;;2.35;;
34805;SDS011;65084;42.196;25.326;2023-04-03T04:02:56;8.15;;;2.70;;
34805;SDS011;65084;42.196;25.326;2023-04-03T04:05:23;13.48;;;3.50;;
34805;SDS011;65084;42.196;25.326;2023-04-03T04:07:51;9.23;;;3.83;;
34805;SDS011;65084;42.196;25.326;2023-04-03T04:10:19;10.48;;;4.85;;
34805;SDS011;65084;42.196;25.326;2023-04-03T04:12:46;14.05;;;5.95;;
34805;SDS011;65084;42.196;25.326;2023-04-03T04:15:16;12.60;;;5.35;;
34805;SDS011;65084;42.196;25.326;2023-04-03T04:17:43;11.65;;;4.07;;
34805;SDS011;65084;42.196;25.326;2023-04-03T04:20:11;13.90;;;4.43;;
34805;SDS011;65084;42.196;25.326;2023-04-03T04:22:38;12.55;;;5.10;;
34805;SDS011;65084;42.196;25.326;2023-04-03T04:25:07;10.98;;;4.75;;
34805;SDS011;65084;42.196;25.326;2023-04-03T04:27:35;6.60;;;4.07;;
34805;SDS011;65084;42.196;25.326;2023-04-03T04:30:03;14.07;;;4.05;;
34805;SDS011;65084;42.196;25.326;2023-04-03T04:32:30;21.92;;;4.07;;
34805;SDS011;65084;42.196;25.326;2023-04-03T04:34:57;12.23;;;4.57;;
34805;SDS011;65084;42.196;25.326;2023-04-03T04:37:25;17.88;;;5.30;;
34805;SDS011;65084;42.196;25.326;2023-04-03T04:39:52;14.30;;;6.15;;
34805;SDS011;65084;42.196;25.326;2023-04-03T04:42:21;12.32;;;5.75;;
34805;SDS011;65084;42.196;25.326;2023-04-03T04:44:48;15.90;;;7.70;;
34805;SDS011;65084;42.196;25.326;2023-04-03T04:47:16;33.15;;;11.05;;
34805;SDS011;65084;42.196;25.326;2023-04-03T04:49:43;25.15;;;11.95;;
34805;SDS011;65084;42.196;25.326;2023-04-03T04:52:12;29.80;;;11.82;;
34805;SDS011;65084;42.196;25.326;2023-04-03T04:54:39;35.17;;;13.32;;
34805;SDS011;65084;42.196;25.326;2023-04-03T04:57:07;27.65;;;10.95;;
34805;SDS011;65084;42.196;25.326;2023-04-03T04:59:36;27.65;;;11.77;;
34805;SDS011;65084;42.196;25.326;2023-04-03T05:02:04;31.25;;;12.75;;
34805;SDS011;65084;42.196;25.326;2023-04-03T05:04:31;25.20;;;12.48;;
34805;SDS011;65084;42.196;25.326;2023-04-03T05:06:58;23.42;;;12.90;;
34805;SDS011;65084;42.196;25.326;2023-04-03T05:09:26;28.55;;;12.52;;
34805;SDS011;65084;42.196;25.326;2023-04-03T05:11:53;20.40;;;7.22;;
34805;SDS011;65084;42.196;25.326;2023-04-03T05:14:23;12.90;;;6.13;;
34805;SDS011;65084;42.196;25.326;2023-04-03T05:16:53;11.30;;;5.65;;
34805;SDS011;65084;42.196;25.326;2023-04-03T05:19:20;8.98;;;6.07;;
34805;SDS011;65084;42.196;25.326;2023-04-03T05:21:47;7.95;;;4.55;;
34805;SDS011;65084;42.196;25.326;2023-04-03T05:24:15;11.02;;;4.78;;
34805;SDS011;65084;42.196;25.326;2023-04-03T05:26:42;8.05;;;4.43;;
34805;SDS011;65084;42.196;25.326;2023-04-03T05:29:10;8.05;;;4.03;;
34805;SDS011;65084;42.196;25.326;2023-04-03T05:31:37;8.27;;;3.78;;
34805;SDS011;65084;42.196;25.326;2023-04-03T05:34:06;5.32;;;3.55;;
34805;SDS011;65084;42.196;25.326;2023-04-03T05:36:33;14.88;;;5.55;;
34805;SDS011;65084;42.196;25.326;2023-04-03T05:39:00;4.68;;;3.53;;
34805;SDS011;65084;42.196;25.326;2023-04-03T05:41:29;7.80;;;3.45;;
34805;SDS011;65084;42.196;25.326;2023-04-03T05:43:56;12.27;;;4.20;;
34805;SDS011;65084;42.196;25.326;2023-04-03T05:46:23;10.07;;;4.55;;
34805;SDS011;65084;42.196;25.326;2023-04-03T05:48:50;25.00;;;7.80;;
34805;SDS011;65084;42.196;25.326;2023-04-03T05:51:20;14.50;;;6.07;;
34805;SDS011;65084;42.196;25.326;2023-04-03T05:53:48;10.32;;;4.65;;
34805;SDS011;65084;42.196;25.326;2023-04-03T05:56:19;4.93;;;3.92;;
34805;SDS011;65084;42.196;25.326;2023-04-03T05:58:46;7.30;;;3.85;;
34805;SDS011;65084;42.196;25.326;2023-04-03T06:01:13;7.93;;;3.65;;
34805;SDS011;65084;42.196;25.326;2023-04-03T06:03:41;4.32;;;3.45;;
34805;SDS011;65084;42.196;25.326;2023-04-03T06:06:10;6.97;;;4.10;;
34805;SDS011;65084;42.196;25.326;2023-04-03T06:08:40;3.72;;;3.00;;
34805;SDS011;65084;42.196;25.326;2023-04-03T06:11:08;4.05;;;3.05;;
34805;SDS011;65084;42.196;25.326;2023-04-03T06:13:36;7.45;;;2.88;;
34805;SDS011;65084;42.196;25.326;2023-04-03T06:16:04;10.95;;;5.25;;
34805;SDS011;65084;42.196;25.326;2023-04-03T06:18:31;4.68;;;4.25;;
34805;SDS011;65084;42.196;25.326;2023-04-03T06:20:59;5.65;;;5.07;;
34805;SDS011;65084;42.196;25.326;2023-04-03T06:23:27;10.70;;;5.60;;
34805;SDS011;65084;42.196;25.326;2023-04-03T06:25:56;7.82;;;5.40;;
34805;SDS011;65084;42.196;25.326;2023-04-03T06:28:24;12.35;;;6.30;;
34805;SDS011;65084;42.196;25.326;2023-04-03T06:30:52;11.63;;;5.70;;
34805;SDS011;65084;42.196;25.326;2023-04-03T06:33:19;10.95;;;4.40;;
34805;SDS011;65084;42.196;25.326;2023-04-03T06:35:46;6.82;;;4.40;;
34805;SDS011;65084;42.196;25.326;2023-04-03T06:38:14;7.53;;;3.88;;
34805;SDS011;65084;42.196;25.326;2023-04-03T06:40:41;8.05;;;4.20;;
34805;SDS011;65084;42.196;25.326;2023-04-03T06:43:11;8.02;;;3.63;;
34805;SDS011;65084;42.196;25.326;2023-04-03T06:45:38;6.90;;;4.43;;
34805;SDS011;65084;42.196;25.326;2023-04-03T06:48:06;4.28;;;3.80;;
34805;SDS011;65084;42.196;25.326;2023-04-03T06:50:33;5.88;;;3.03;;
34805;SDS011;65084;42.196;25.326;2023-04-03T06:53:00;3.63;;;2.38;;
34805;SDS011;65084;42.196;25.326;2023-04-03T06:55:28;6.57;;;2.60;;
34805;SDS011;65084;42.196;25.326;2023-04-03T06:57:56;5.38;;;3.03;;
34805;SDS011;65084;42.196;25.326;2023-04-03T07:00:25;13.48;;;4.30;;
34805;SDS011;65084;42.196;25.326;2023-04-03T07:02:53;17.10;;;4.40;;
34805;SDS011;65084;42.196;25.326;2023-04-03T07:05:21;7.25;;;3.83;;
34805;SDS011;65084;42.196;25.326;2023-04-03T07:07:48;15.30;;;4.80;;
34805;SDS011;65084;42.196;25.326;2023-04-03T07:10:16;13.02;;;4.63;;
34805;SDS011;65084;42.196;25.326;2023-04-03T07:12:44;12.55;;;4.03;;
34805;SDS011;65084;42.196;25.326;2023-04-03T07:15:11;7.40;;;3.63;;
34805;SDS011;65084;42.196;25.326;2023-04-03T07:17:41;12.85;;;3.33;;
34805;SDS011;65084;42.196;25.326;2023-04-03T07:20:09;7.07;;;3.47;;
34805;SDS011;65084;42.196;25.326;2023-04-03T07:22:36;6.20;;;3.13;;
34805;SDS011;65084;42.196;25.326;2023-04-03T07:25:04;9.85;;;3.92;;
34805;SDS011;65084;42.196;25.326;2023-04-03T07:27:32;13.68;;;5.93;;
34805;SDS011;65084;42.196;25.326;2023-04-03T07:30:00;11.73;;;7.03;;
34805;SDS011;65084;42.196;25.326;2023-04-03T07:32:28;11.07;;;7.40;;
34805;SDS011;65084;42.196;25.326;2023-04-03T07:34:57;8.73;;;4.78;;
34805;SDS011;65084;42.196;25.326;2023-04-03T07:37:24;7.72;;;5.00;;
34805;SDS011;65084;42.196;25.326;2023-04-03T07:39:52;9.10;;;4.65;;
34805;SDS011;65084;42.196;25.326;2023-04-03T07:42:20;6.55;;;4.70;;
34805;SDS011;65084;42.196;25.326;2023-04-03T07:44:47;6.95;;;4.78;;
34805;SDS011;65084;42.196;25.326;2023-04-03T07:47:15;3.88;;;3.47;;
34805;SDS011;65084;42.196;25.326;2023-04-03T07:49:43;3.75;;;3.38;;
34805;SDS011;65084;42.196;25.326;2023-04-03T07:52:11;2.97;;;2.70;;
34805;SDS011;65084;42.196;25.326;2023-04-03T07:54:40;2.92;;;2.72;;
34805;SDS011;65084;42.196;25.326;2023-04-03T07:57:08;3.15;;;2.85;;
34805;SDS011;65084;42.196;25.326;2023-04-03T07:59:36;4.05;;;2.53;;
34805;SDS011;65084;42.196;25.326;2023-04-03T08:02:04;3.72;;;2.72;;
34805;SDS011;65084;42.196;25.326;2023-04-03T08:04:32;4.85;;;2.97;;
34805;SDS011;65084;42.196;25.326;2023-04-03T08:07:00;3.72;;;2.40;;
34805;SDS011;65084;42.196;25.326;2023-04-03T08:09:28;2.75;;;2.45;;
34805;SDS011;65084;42.196;25.326;2023-04-03T08:11:56;2.20;;;2.00;;
34805;SDS011;65084;42.196;25.326;2023-04-03T08:14:23;3.55;;;2.42;;
34805;SDS011;65084;42.196;25.326;2023-04-03T08:16:51;3.80;;;2.63;;
34805;SDS011;65084;42.196;25.326;2023-04-03T08:19:18;6.03;;;2.38;;
34805;SDS011;65084;42.196;25.326;2023-04-03T08:21:46;3.38;;;2.88;;
34805;SDS011;65084;42.196;25.326;2023-04-03T08:24:13;3.75;;;3.25;;
34805;SDS011;65084;42.196;25.326;2023-04-03T08:26:42;3.90;;;3.58;;
34805;SDS011;65084;42.196;25.326;2023-04-03T08:29:09;3.53;;;2.80;;
34805;SDS011;65084;42.196;25.326;2023-04-03T08:31:36;2.85;;;2.63;;
34805;SDS011;65084;42.196;25.326;2023-04-03T08:34:04;4.63;;;3.00;;
34805;SDS011;65084;42.196;25.326;2023-04-03T08:36:31;5.32;;;2.55;;
34805;SDS011;65084;42.196;25.326;2023-04-03T08:38:58;4.30;;;2.80;;
34805;SDS011;65084;42.196;25.326;2023-04-03T08:41:28;4.72;;;2.42;;
34805;SDS011;65084;42.196;25.326;2023-04-03T08:44:00;3.75;;;2.70;;
34805;SDS011;65084;42.196;25.326;2023-04-03T08:46:32;4.22;;;2.50;;
34805;SDS011;65084;42.196;25.326;2023-04-03T08:49:03;6.40;;;2.20;;
34805;SDS011;65084;42.196;25.326;2023-04-03T08:51:31;77.32;;;54.10;;
34805;SDS011;65084;42.196;25.326;2023-04-03T08:53:59;13.77;;;10.43;;
34805;SDS011;65084;42.196;25.326;2023-04-03T08:56:29;12.30;;;8.60;;
34805;SDS011;65084;42.196;25.326;2023-04-03T08:58:58;7.57;;;5.43;;
34805;SDS011;65084;42.196;25.326;2023-04-03T09:01:30;7.00;;;5.45;;
34805;SDS011;65084;42.196;25.326;2023-04-03T09:04:00;6.75;;;4.72;;
34805;SDS011;65084;42.196;25.326;2023-04-03T09:06:28;14.43;;;5.60;;
34805;SDS011;65084;42.196;25.326;2023-04-03T09:09:01;5.60;;;4.05;;
34805;SDS011;65084;42.196;25.326;2023-04-03T09:11:34;7.47;;;1.83;;
34805;SDS011;65084;42.196;25.326;2023-04-03T09:14:04;8.02;;;3.88;;
34805;SDS011;65084;42.196;25.326;2023-04-03T09:16:39;15.02;;;6.18;;
34805;SDS011;65084;42.196;25.326;2023-04-03T09:19:12;7.57;;;3.65;;
34805;SDS011;65084;42.196;25.326;2023-04-03T09:21:42;10.80;;;4.78;;
34805;SDS011;65084;42.196;25.326;2023-04-03T09:24:10;6.50;;;3.10;;
34805;SDS011;65084;42.196;25.326;2023-04-03T09:26:40;8.82;;;4.75;;
34805;SDS011;65084;42.196;25.326;2023-04-03T09:29:08;5.53;;;3.60;;
34805;SDS011;65084;42.196;25.326;2023-04-03T09:31:42;3.63;;;3.25;;
34805;SDS011;65084;42.196;25.326;2023-04-03T09:34:13;3.95;;;3.35;;
34805;SDS011;65084;42.196;25.326;2023-04-03T09:36:43;9.23;;;4.82;;
34805;SDS011;65084;42.196;25.326;2023-04-03T09:39:12;3.17;;;2.60;;
34805;SDS011;65084;42.196;25.326;2023-04-03T09:41:41;1.83;;;1.52;;
34805;SDS011;65084;42.196;25.326;2023-04-03T09:46:56;6.95;;;3.13;;
34805;SDS011;65084;42.196;25.326;2023-04-03T09:49:23;2.20;;;2.00;;
34805;SDS011;65084;42.196;25.326;2023-04-03T09:51:51;1.48;;;1.20;;
34805;SDS011;65084;42.196;25.326;2023-04-03T09:54:32;2.30;;;1.30;;
34805;SDS011;65084;42.196;25.326;2023-04-03T09:57:02;2.28;;;1.50;;
34805;SDS011;65084;42.196;25.326;2023-04-03T09:59:31;5.97;;;2.78;;
34805;SDS011;65084;42.196;25.326;2023-04-03T10:02:00;4.97;;;3.88;;
34805;SDS011;65084;42.196;25.326;2023-04-03T10:04:36;5.18;;;4.57;;
34805;SDS011;65084;42.196;25.326;2023-04-03T10:07:04;9.27;;;4.32;;
34805;SDS011;65084;42.196;25.326;2023-04-03T10:09:54;4.68;;;3.58;;
34805;SDS011;65084;42.196;25.326;2023-04-03T10:12:22;29.95;;;4.15;;
34805;SDS011;65084;42.196;25.326;2023-04-03T10:14:54;21.17;;;5.13;;
34805;SDS011;65084;42.196;25.326;2023-04-03T10:17:25;7.45;;;4.40;;
34805;SDS011;65084;42.196;25.326;2023-04-03T10:19:54;5.97;;;3.55;;
34805;SDS011;65084;42.196;25.326;2023-04-03T10:22:25;10.10;;;3.13;;
34805;SDS011;65084;42.196;25.326;2023-04-03T10:25:01;16.70;;;3.15;;
34805;SDS011;65084;42.196;25.326;2023-04-03T10:27:35;4.00;;;3.10;;
34805;SDS011;65084;42.196;25.326;2023-04-03T10:30:09;12.52;;;4.05;;
34805;SDS011;65084;42.196;25.326;2023-04-03T10:32:52;16.45;;;4.53;;
34805;SDS011;65084;42.196;25.326;2023-04-03T10:35:25;12.55;;;6.70;;
34805;SDS011;65084;42.196;25.326;2023-04-03T10:37:59;11.98;;;5.43;;
34805;SDS011;65084;42.196;25.326;2023-04-03T10:40:29;18.83;;;6.80;;
34805;SDS011;65084;42.196;25.326;2023-04-03T10:42:59;17.90;;;7.03;;
34805;SDS011;65084;42.196;25.326;2023-04-03T10:45:29;30.90;;;7.22;;
34805;SDS011;65084;42.196;25.326;2023-04-03T10:48:02;24.75;;;8.13;;
34805;SDS011;65084;42.196;25.326;2023-04-03T10:50:42;29.10;;;10.27;;
34805;SDS011;65084;42.196;25.326;2023-04-03T10:53:14;23.92;;;9.68;;
34805;SDS011;65084;42.196;25.326;2023-04-03T10:55:46;19.75;;;8.95;;
34805;SDS011;65084;42.196;25.326;2023-04-03T10:58:18;22.08;;;9.02;;
34805;SDS011;65084;42.196;25.326;2023-04-03T11:00:48;19.27;;;7.47;;
34805;SDS011;65084;42.196;25.326;2023-04-03T11:03:22;18.80;;;8.20;;
34805;SDS011;65084;42.196;25.326;2023-04-03T11:05:52;23.33;;;10.20;;
34805;SDS011;65084;42.196;25.326;2023-04-03T11:08:24;24.00;;;8.75;;
34805;SDS011;65084;42.196;25.326;2023-04-03T11:10:54;21.60;;;12.75;;
34805;SDS011;65084;42.196;25.326;2023-04-03T11:13:23;22.58;;;10.88;;
34805;SDS011;65084;42.196;25.326;2023-04-03T11:15:52;16.35;;;10.43;;
34805;SDS011;65084;42.196;25.326;2023-04-03T11:18:22;25.48;;;13.02;;
34805;SDS011;65084;42.196;25.326;2023-04-03T11:20:56;18.55;;;8.45;;
34805;SDS011;65084;42.196;25.326;2023-04-03T11:23:26;20.33;;;8.70;;
34805;SDS011;65084;42.196;25.326;2023-04-03T11:25:59;22.90;;;9.85;;
34805;SDS011;65084;42.196;25.326;2023-04-03T11:28:28;18.98;;;9.38;;
34805;SDS011;65084;42.196;25.326;2023-04-03T11:30:58;19.42;;;10.15;;
34805;SDS011;65084;42.196;25.326;2023-04-03T11:33:36;25.80;;;11.00;;
34805;SDS011;65084;42.196;25.326;2023-04-03T11:36:05;25.67;;;11.13;;
34805;SDS011;65084;42.196;25.326;2023-04-03T11:38:35;21.77;;;10.50;;
34805;SDS011;65084;42.196;25.326;2023-04-03T11:41:04;28.30;;;10.70;;
34805;SDS011;65084;42.196;25.326;2023-04-03T11:43:33;20.02;;;11.93;;
34805;SDS011;65084;42.196;25.326;2023-04-03T11:46:01;20.42;;;10.57;;
34805;SDS011;65084;42.196;25.326;2023-04-03T11:48:44;24.27;;;11.40;;
34805;SDS011;65084;42.196;25.326;2023-04-03T11:56:58;14.57;;;7.60;;
34805;SDS011;65084;42.196;25.326;2023-04-03T11:59:25;22.17;;;9.88;;
34805;SDS011;65084;42.196;25.326;2023-04-03T12:01:53;22.08;;;10.52;;
34805;SDS011;65084;42.196;25.326;2023-04-03T12:04:23;24.42;;;10.70;;
34805;SDS011;65084;42.196;25.326;2023-04-03T12:06:53;17.70;;;10.30;;
34805;SDS011;65084;42.196;25.326;2023-04-03T12:09:25;21.00;;;9.57;;
34805;SDS011;65084;42.196;25.326;2023-04-03T12:11:54;30.77;;;10.27;;
34805;SDS011;65084;42.196;25.326;2023-04-03T12:14:22;21.02;;;11.18;;
34805;SDS011;65084;42.196;25.326;2023-04-03T12:19:53;27.83;;;19.33;;
34805;SDS011;65084;42.196;25.326;2023-04-03T12:22:20;31.13;;;16.67;;
34805;SDS011;65084;42.196;25.326;2023-04-03T12:24:48;28.20;;;13.45;;
34805;SDS011;65084;42.196;25.326;2023-04-03T12:30:07;55.22;;;23.52;;
34805;SDS011;65084;42.196;25.326;2023-04-03T12:32:46;29.30;;;15.73;;
34805;SDS011;65084;42.196;25.326;2023-04-03T12:35:18;26.52;;;13.10;;
34805;SDS011;65084;42.196;25.326;2023-04-03T12:37:54;24.40;;;15.20;;
34805;SDS011;65084;42.196;25.326;2023-04-03T12:40:26;30.35;;;17.45;;
34805;SDS011;65084;42.196;25.326;2023-04-03T12:45:40;14.70;;;10.13;;
34805;SDS011;65084;42.196;25.326;2023-04-03T12:48:10;16.70;;;10.02;;
34805;SDS011;65084;42.196;25.326;2023-04-03T12:50:42;20.13;;;9.50;;
34805;SDS011;65084;42.196;25.326;2023-04-03T12:53:11;20.48;;;10.38;;
34805;SDS011;65084;42.196;25.326;2023-04-03T12:55:40;18.98;;;9.88;;
34805;SDS011;65084;42.196;25.326;2023-04-03T12:58:14;17.55;;;9.82;;
34805;SDS011;65084;42.196;25.326;2023-04-03T13:00:42;15.00;;;9.43;;
34805;SDS011;65084;42.196;25.326;2023-04-03T13:03:20;15.07;;;9.05;;
34805;SDS011;65084;42.196;25.326;2023-04-03T13:05:50;15.07;;;9.82;;
34805;SDS011;65084;42.196;25.326;2023-04-03T13:08:17;14.60;;;8.82;;
34805;SDS011;65084;42.196;25.326;2023-04-03T13:10:49;15.65;;;7.78;;
34805;SDS011;65084;42.196;25.326;2023-04-03T13:13:18;15.63;;;7.40;;
34805;SDS011;65084;42.196;25.326;2023-04-03T13:15:45;19.73;;;7.57;;
34805;SDS011;65084;42.196;25.326;2023-04-03T13:18:23;21.55;;;7.47;;
34805;SDS011;65084;42.196;25.326;2023-04-03T13:20:52;33.83;;;9.50;;
34805;SDS011;65084;42.196;25.326;2023-04-03T13:23:20;18.70;;;8.98;;
34805;SDS011;65084;42.196;25.326;2023-04-03T13:25:48;12.70;;;7.20;;
34805;SDS011;65084;42.196;25.326;2023-04-03T13:28:17;13.85;;;6.20;;
34805;SDS011;65084;42.196;25.326;2023-04-03T13:30:54;23.10;;;7.32;;
34805;SDS011;65084;42.196;25.326;2023-04-03T13:33:22;10.25;;;5.57;;
34805;SDS011;65084;42.196;25.326;2023-04-03T13:35:55;9.65;;;5.40;;
34805;SDS011;65084;42.196;25.326;2023-04-03T13:38:23;8.00;;;5.22;;
34805;SDS011;65084;42.196;25.326;2023-04-03T13:40:52;12.45;;;6.65;;
34805;SDS011;65084;42.196;25.326;2023-04-03T13:43:20;14.93;;;8.35;;
34805;SDS011;65084;42.196;25.326;2023-04-03T13:45:56;25.80;;;11.00;;
34805;SDS011;65084;42.196;25.326;2023-04-03T13:48:24;43.90;;;28.83;;
34805;SDS011;65084;42.196;25.326;2023-04-03T13:50:53;153.02;;;99.55;;
34805;SDS011;65084;42.196;25.326;2023-04-03T13:53:22;225.98;;;143.13;;
34805;SDS011;65084;42.196;25.326;2023-04-03T13:55:54;142.30;;;83.38;;
34805;SDS011;65084;42.196;25.326;2023-04-03T13:58:23;55.45;;;34.10;;
34805;SDS011;65084;42.196;25.326;2023-04-03T14:00:51;25.30;;;16.08;;
34805;SDS011;65084;42.196;25.326;2023-04-03T14:03:21;18.85;;;12.60;;
34805;SDS011;65084;42.196;25.326;2023-04-03T14:05:48;17.90;;;9.27;;
34805;SDS011;65084;42.196;25.326;2023-04-03T14:08:16;12.25;;;7.95;;
34805;SDS011;65084;42.196;25.326;2023-04-03T14:10:45;11.50;;;7.10;;
34805;SDS011;65084;42.196;25.326;2023-04-03T14:13:15;13.57;;;8.25;;
34805;SDS011;65084;42.196;25.326;2023-04-03T14:15:43;22.23;;;14.65;;
34805;SDS011;65084;42.196;25.326;2023-04-03T14:18:10;14.02;;;9.60;;
34805;SDS011;65084;42.196;25.326;2023-04-03T14:20:38;13.88;;;8.45;;
34805;SDS011;65084;42.196;25.326;2023-04-03T14:23:06;18.83;;;6.47;;
34805;SDS011;65084;42.196;25.326;2023-04-03T14:25:33;9.70;;;6.65;;
34805;SDS011;65084;42.196;25.326;2023-04-03T14:28:07;11.85;;;6.50;;
34805;SDS011;65084;42.196;25.326;2023-04-03T14:30:39;9.90;;;6.63;;
34805;SDS011;65084;42.196;25.326;2023-04-03T14:33:06;15.18;;;6.63;;
34805;SDS011;65084;42.196;25.326;2023-04-03T14:35:37;11.68;;;9.50;;
34805;SDS011;65084;42.196;25.326;2023-04-03T14:38:05;17.25;;;10.07;;
34805;SDS011;65084;42.196;25.326;2023-04-03T14:40:39;13.13;;;7.47;;
34805;SDS011;65084;42.196;25.326;2023-04-03T14:43:10;13.70;;;6.25;;
34805;SDS011;65084;42.196;25.326;2023-04-03T14:45:40;12.10;;;5.75;;
34805;SDS011;65084;42.196;25.326;2023-04-03T14:48:09;9.75;;;5.63;;
34805;SDS011;65084;42.196;25.326;2023-04-03T14:50:36;13.10;;;6.22;;
34805;SDS011;65084;42.196;25.326;2023-04-03T14:53:04;11.75;;;7.15;;